Northern Power — A8TL6 — position and weather

sailwx.info

Track history (hours):
 
Tides and Currents Weather Stations Pressure Air Temp Water Temp Dewpoint Dewpoint Depression Visibility Wind Speed Wind Dir Waves Ship Positions

Northern Power

Last reported at 2014-Oct-25 10:08 UTC. Time now 2014-Oct-25 15:23 UTC.
Position N 35°57' W 005°35'.

Length 264 m; draft 13.1 m.

Type: Ship (hazmat cat A). MMSI: 636091835.

Date/timePositionNaut miles runAvg speedWind from/ knotsBaromVisibWave heightAir tempDewpointWater temp
2014-Oct-25 10:08N 35°57' W 005°35'915.4
2014-Oct-25 09:33N 36°01' W 005°24'22114.7
2014-Oct-24 18:31N 36°28' W 000°53'1414.8
2014-Oct-24 17:32N 36°30' W 000°35'1514.9
2014-Oct-24 16:33N 36°32' W 000°17'1514.8
2014-Oct-24 15:33N 36°36' E 000°01'1515.2
2014-Oct-24 14:33N 36°38' E 000°20'1514.9
2014-Oct-24 13:34N 36°41' E 000°38'1514.9
2014-Oct-24 12:33N 36°44' E 000°56'1514.9
2014-Oct-24 11:33N 36°47' E 001°15'1515.4
2014-Oct-24 10:33N 36°50' E 001°34'1515.1
2014-Oct-24 09:33N 36°52' E 001°52'1514.9
2014-Oct-24 08:33N 36°55' E 002°10'1615.0
2014-Oct-24 07:31N 36°58' E 002°29'1515.0
2014-Oct-24 06:31N 37°01' E 002°48'1515.2
2014-Oct-24 05:31N 37°04' E 003°07'  
Track history (hours):
 
Tides and Currents Weather Stations Pressure Air Temp Water Temp Dewpoint Dewpoint Depression Visibility Wind Speed Wind Dir Waves Ship Positions

Northern Power

Last reported at 2014-Oct-25 10:08 UTC. Time now 2014-Oct-25 15:23 UTC.
Position N 35°57' W 005°35'.

Length 264 m; draft 13.1 m.

Type: Ship (hazmat cat A). MMSI: 636091835.

Date/timePositionNaut miles runAvg speedWind from/ knotsBaromVisibWave heightAir tempDewpointWater temp
2014-Oct-25 10:08N 35°57' W 005°35'915.4
2014-Oct-25 09:33N 36°01' W 005°24'22114.7
2014-Oct-24 18:31N 36°28' W 000°53'1414.8
2014-Oct-24 17:32N 36°30' W 000°35'1514.9
2014-Oct-24 16:33N 36°32' W 000°17'1514.8
2014-Oct-24 15:33N 36°36' E 000°01'1515.2
2014-Oct-24 14:33N 36°38' E 000°20'1514.9
2014-Oct-24 13:34N 36°41' E 000°38'1514.9
2014-Oct-24 12:33N 36°44' E 000°56'1514.9
2014-Oct-24 11:33N 36°47' E 001°15'1515.4
2014-Oct-24 10:33N 36°50' E 001°34'1515.1
2014-Oct-24 09:33N 36°52' E 001°52'1514.9
2014-Oct-24 08:33N 36°55' E 002°10'1615.0
2014-Oct-24 07:31N 36°58' E 002°29'1515.0
2014-Oct-24 06:31N 37°01' E 002°48'1515.2
2014-Oct-24 05:31N 37°04' E 003°07'  

Dump ship's entire track history